Time;durP1;ratioP1;P1;durP2;ratioP2;P2;SDS_P1;SDS_P2;PMS_P1;PMS_P2;Temp;Humidity;BMP_temperature;BMP_pressure;BME280_temperature;BME280_humidity;BME280_pressure;Samples;Min_cycle;Max_cycle;Signal;HPM_P1;HPM_P2
2022/12/03 00:00:40;;;;;;;;;38.00;34.25;;;;;7.36;66.71;101178.81;2098037;28;46473;-66
2022/12/03 00:01:40;;;;;;;;;35.75;32.00;;;;;7.35;66.55;101175.28;2096118;28;45992;-65
2022/12/03 00:02:41;;;;;;;;;36.75;33.75;;;;;7.35;66.36;101175.28;2096333;28;46668;-65
2022/12/03 00:03:42;;;;;;;;;36.75;32.00;;;;;7.34;66.61;101170.03;2096234;28;46419;-66
2022/12/03 00:04:42;;;;;;;;;35.25;33.75;;;;;7.33;66.64;101173.53;2096488;28;46583;-66
2022/12/03 00:05:42;;;;;;;;;38.50;35.50;;;;;7.33;66.64;101176.19;2096333;28;46689;-66
2022/12/03 00:06:43;;;;;;;;;42.25;37.00;;;;;7.32;66.48;101171.78;2096448;28;46617;-66
2022/12/03 00:07:43;;;;;;;;;29.00;29.00;;;;;7.32;66.87;101177.06;2096362;28;46377;-66
2022/12/03 00:08:43;;;;;;;;;36.00;34.50;;;;;7.32;66.69;101174.44;2095580;28;46412;-66
2022/12/03 00:09:44;;;;;;;;;37.25;34.25;;;;;7.33;66.63;101168.25;2096301;28;46485;-65
2022/12/03 00:10:44;;;;;;;;;43.50;35.75;;;;;7.33;66.66;101171.78;2095885;28;46291;-64
2022/12/03 00:11:44;;;;;;;;;40.50;34.75;;;;;7.34;66.63;101173.53;2095894;28;46542;-64
2022/12/03 00:12:45;;;;;;;;;40.75;36.25;;;;;7.36;66.67;101173.53;2095093;28;46566;-64
2022/12/03 00:13:46;;;;;;;;;37.40;35.20;;;;;7.35;66.48;101169.13;2095573;28;46882;-66
2022/12/03 00:14:46;;;;;;;;;32.75;28.75;;;;;7.35;66.66;101166.50;2094946;28;46171;-66
2022/12/03 00:15:46;;;;;;;;;37.75;34.50;;;;;7.36;66.61;101168.25;2095260;28;46083;-65
2022/12/03 00:16:47;;;;;;;;;44.50;34.50;;;;;7.36;66.45;101165.63;2095724;28;46658;-65
2022/12/03 00:17:47;;;;;;;;;42.50;37.00;;;;;7.37;66.50;101167.41;2096406;28;46537;-65
2022/12/03 00:18:51;;;;;;;;;31.75;31.75;;;;;7.36;66.39;101162.97;2095710;28;46345;-67
2022/12/03 00:19:51;;;;;;;;;39.20;35.20;;;;;7.36;66.48;101162.97;2061479;28;46562;-64
2022/12/03 00:20:51;;;;;;;;;41.50;36.25;;;;;7.36;66.70;101165.63;2062145;28;46912;-65
2022/12/03 00:21:52;;;;;;;;;39.75;33.00;;;;;7.36;66.78;101171.78;2096561;28;45922;-66
2022/12/03 00:22:52;;;;;;;;;44.75;37.25;;;;;7.37;66.75;101164.75;2095319;28;46802;-64
2022/12/03 00:23:52;;;;;;;;;40.00;34.50;;;;;7.38;66.73;101170.03;2095959;28;46205;-65
2022/12/03 00:24:53;;;;;;;;;42.50;35.50;;;;;7.39;66.66;101160.34;2095790;28;46126;-64
2022/12/03 00:25:53;;;;;;;;;42.75;35.75;;;;;7.39;66.59;101163.00;2094997;28;46345;-65
2022/12/03 00:26:53;;;;;;;;;41.00;36.00;;;;;7.38;66.40;101162.13;2093737;28;46281;-65
2022/12/03 00:27:53;;;;;;;;;43.00;35.75;;;;;7.36;66.43;101161.22;2096568;28;46726;-64
2022/12/03 00:28:54;;;;;;;;;45.50;38.25;;;;;7.35;66.46;101153.28;2097608;28;46491;-66
2022/12/03 00:29:54;;;;;;;;;44.75;37.50;;;;;7.35;66.39;101161.22;2097006;28;46485;-66
2022/12/03 00:30:54;;;;;;;;;43.50;37.00;;;;;7.34;66.44;101155.06;2097152;28;46692;-65
2022/12/03 00:31:55;;;;;;;;;40.00;34.25;;;;;7.35;66.45;101155.94;2097112;28;46441;-66
2022/12/03 00:32:55;;;;;;;;;47.50;37.50;;;;;7.35;66.80;101154.19;2097606;28;46303;-66
2022/12/03 00:33:55;;;;;;;;;36.25;31.25;;;;;7.35;66.73;101151.53;2097337;28;46747;-65
2022/12/03 00:34:56;;;;;;;;;40.00;36.25;;;;;7.35;66.82;101154.19;2097967;28;46413;-65
2022/12/03 00:35:56;;;;;;;;;46.75;36.50;;;;;7.35;66.62;101150.66;2096896;28;46000;-65
2022/12/03 00:36:56;;;;;;;;;40.25;34.25;;;;;7.34;66.67;101152.41;2097749;28;46698;-67
2022/12/03 00:37:57;;;;;;;;;38.25;35.25;;;;;7.35;66.65;101154.19;2097831;28;46237;-64
2022/12/03 00:38:57;;;;;;;;;43.25;36.75;;;;;7.35;66.58;101153.28;2097481;28;46289;-65
2022/12/03 00:39:57;;;;;;;;;42.50;38.25;;;;;7.35;66.63;101154.19;2097646;28;46117;-64
2022/12/03 00:40:57;;;;;;;;;39.00;34.50;;;;;7.35;66.62;101148.00;2097587;28;46693;-64
2022/12/03 00:41:58;;;;;;;;;43.25;37.00;;;;;7.35;66.62;101150.66;2097671;28;46634;-65
2022/12/03 00:42:58;;;;;;;;;40.75;35.25;;;;;7.35;66.78;101153.28;2097637;28;46197;-66
2022/12/03 00:43:59;;;;;;;;;46.50;37.25;;;;;7.34;66.49;101151.53;2085623;28;46189;-63
2022/12/03 00:44:59;;;;;;;;;38.00;35.75;;;;;7.35;66.63;101154.19;2082964;28;45562;-66
2022/12/03 00:45:59;;;;;;;;;40.50;36.25;;;;;7.36;66.51;101144.50;2097413;28;46593;-65
2022/12/03 00:47:00;;;;;;;;;35.50;32.00;;;;;7.37;66.66;101152.44;2097854;28;46384;-67
2022/12/03 00:48:00;;;;;;;;;45.25;38.50;;;;;7.38;66.62;101148.03;2097693;28;46755;-64
2022/12/03 00:49:01;;;;;;;;;48.00;38.50;;;;;7.40;66.59;101142.75;2097414;28;46924;-65
2022/12/03 00:50:01;;;;;;;;;38.25;34.00;;;;;7.40;66.48;101143.63;2097478;28;46491;-66
2022/12/03 00:51:01;;;;;;;;;35.50;33.00;;;;;7.38;66.21;101140.13;2097559;28;46167;-64
2022/12/03 00:52:02;;;;;;;;;33.25;31.00;;;;;7.40;66.33;101148.03;2097665;28;46238;-65
2022/12/03 00:53:02;;;;;;;;;34.25;30.75;;;;;7.39;66.33;101152.44;2097786;28;46608;-65
2022/12/03 00:54:02;;;;;;;;;42.25;35.75;;;;;7.40;66.43;101143.63;2097540;28;46482;-65
2022/12/03 00:55:03;;;;;;;;;41.00;37.00;;;;;7.38;66.61;101141.00;2097214;28;46551;-66
2022/12/03 00:56:04;;;;;;;;;40.25;35.25;;;;;7.38;66.61;101153.31;2097273;28;44989;-64
2022/12/03 00:57:04;;;;;;;;;42.00;37.75;;;;;7.37;66.18;101149.78;2097372;28;46330;-65
2022/12/03 00:58:07;;;;;;;;;38.25;34.25;;;;;7.37;66.13;101149.78;2097257;28;46805;-65
2022/12/03 00:59:07;;;;;;;;;41.60;36.40;;;;;7.36;66.36;101148.00;2097758;28;46335;-64
2022/12/03 01:00:09;;;;;;;;;36.50;34.25;;;;;7.37;66.21;101146.28;2097085;28;46694;-66
2022/12/03 01:01:09;;;;;;;;;42.20;37.40;;;;;7.37;66.54;101147.16;2097372;28;47058;-64
2022/12/03 01:02:09;;;;;;;;;42.75;39.25;;;;;7.37;66.28;101149.78;2097435;28;46518;-64
2022/12/03 01:03:10;;;;;;;;;41.25;35.75;;;;;7.37;66.54;101146.28;2097547;28;47054;-66
2022/12/03 01:04:10;;;;;;;;;39.25;34.25;;;;;7.38;66.28;101141.00;2097884;28;45682;-64
2022/12/03 01:05:10;;;;;;;;;32.25;30.25;;;;;7.38;66.49;101142.75;2097294;28;46645;-68
2022/12/03 01:06:11;;;;;;;;;39.25;34.25;;;;;7.38;66.36;101140.13;2097933;28;45279;-66
2022/12/03 01:07:11;;;;;;;;;37.75;35.25;;;;;7.38;66.36;101148.91;2097666;28;46282;-65
2022/12/03 01:08:11;;;;;;;;;40.00;35.25;;;;;7.39;66.26;101144.50;2097418;28;46370;-65
2022/12/03 01:09:12;;;;;;;;;41.50;35.50;;;;;7.39;66.43;101141.88;2097636;28;46304;-65
2022/12/03 01:10:13;;;;;;;;;37.75;36.00;;;;;7.38;66.57;101140.13;2097279;28;46594;-66
2022/12/03 01:12:32;;;;;;;;;40.80;37.00;;;;;7.41;66.79;101141.88;2097360;28;46342;-66
2022/12/03 01:13:33;;;;;;;;;45.75;35.50;;;;;7.41;66.56;101142.75;2097654;28;46242;-66
2022/12/03 01:14:33;;;;;;;;;30.50;29.75;;;;;7.41;66.32;101141.88;2097370;28;46333;-65
2022/12/03 01:15:34;;;;;;;;;30.00;28.00;;;;;7.42;66.28;101148.91;2079950;28;46286;-65
2022/12/03 01:16:35;;;;;;;;;35.25;33.25;;;;;7.41;66.18;101144.50;2080659;28;46219;-65
2022/12/03 01:17:35;;;;;;;;;40.80;36.80;;;;;7.40;66.32;101140.09;2097534;28;46411;-65
2022/12/03 01:18:36;;;;;;;;;38.50;34.50;;;;;7.40;66.40;101143.63;2097786;28;46764;-67
2022/12/03 01:19:36;;;;;;;;;49.75;38.00;;;;;7.40;66.54;101154.19;2097286;28;46658;-63
2022/12/03 01:20:37;;;;;;;;;47.00;37.75;;;;;7.40;66.49;101148.03;2098419;28;46412;-66
2022/12/03 01:21:37;;;;;;;;;41.20;37.40;;;;;7.37;66.31;101141.00;2097389;28;46410;-65
2022/12/03 01:22:38;;;;;;;;;39.25;36.25;;;;;7.38;66.28;101141.00;2088472;28;46802;-66
2022/12/03 01:23:38;;;;;;;;;38.75;34.50;;;;;7.38;66.35;101148.03;2088042;28;46785;-66
2022/12/03 01:24:38;;;;;;;;;34.75;32.75;;;;;7.38;66.32;101142.75;2096763;28;46488;-64
2022/12/03 01:25:39;;;;;;;;;38.50;34.25;;;;;7.38;66.06;101148.03;2097380;28;46242;-65
2022/12/03 01:26:39;;;;;;;;;42.25;36.00;;;;;7.38;66.34;101142.75;2103591;28;46166;-65
2022/12/03 01:27:39;;;;;;;;;42.50;36.00;;;;;7.37;66.29;101141.88;2104856;28;46230;-66
2022/12/03 01:28:43;;;;;;;;;40.25;35.50;;;;;7.38;66.47;101148.03;2096959;28;46733;-65
2022/12/03 01:29:43;;;;;;;;;42.40;37.00;;;;;7.40;66.44;101150.66;2097139;28;46756;-65
2022/12/03 01:32:18;;;;;;;;;41.40;34.20;;;;;7.38;66.34;101146.28;2097171;28;46659;-65
2022/12/03 01:33:18;;;;;;;;;41.00;36.80;;;;;7.38;66.37;101148.03;2097335;28;46393;-65
2022/12/03 01:34:18;;;;;;;;;43.50;37.00;;;;;7.38;66.18;101142.75;2096920;28;46699;-65
2022/12/03 01:35:19;;;;;;;;;39.25;35.25;;;;;7.37;66.17;101136.59;2097045;28;46288;-64
2022/12/03 01:36:19;;;;;;;;;37.25;35.50;;;;;7.38;66.36;101138.34;2097003;28;46201;-64
2022/12/03 01:37:22;;;;;;;;;41.50;35.75;;;;;7.41;66.50;101142.75;2097179;28;46764;-65
2022/12/03 01:38:22;;;;;;;;;37.00;33.80;;;;;7.42;66.66;101135.69;2097407;28;46514;-65
2022/12/03 01:39:22;;;;;;;;;41.75;35.50;;;;;7.42;66.25;101139.22;2095896;28;46292;-64
2022/12/03 01:40:23;;;;;;;;;43.75;37.00;;;;;7.43;66.42;101140.09;2097452;28;46183;-65
2022/12/03 01:41:23;;;;;;;;;40.50;34.75;;;;;7.44;66.17;101141.84;2095779;28;46696;-65
2022/12/03 01:42:33;;;;;;;;;46.00;37.25;;;;;7.45;66.06;101143.59;2097252;28;46874;-64
2022/12/03 01:43:34;;;;;;;;;41.20;37.00;;;;;7.44;66.19;101142.72;2096164;28;46146;-64
2022/12/03 01:44:38;;;;;;;;;36.75;33.00;;;;;7.42;65.67;101141.84;2097160;28;46285;-65
2022/12/03 01:45:38;;;;;;;;;35.60;34.40;;;;;7.42;66.12;101144.50;2096992;28;46940;-65
2022/12/03 01:46:40;;;;;;;;;41.00;36.00;;;;;7.41;66.15;101140.09;2097079;28;46795;-66
2022/12/03 01:47:41;;;;;;;;;34.80;33.80;;;;;7.41;66.16;101155.06;2097257;28;45516;-67
2022/12/03 01:48:41;;;;;;;;;46.00;38.00;;;;;7.41;66.21;101144.50;2097266;28;45273;-65
2022/12/03 01:49:49;;;;;;;;;43.75;37.25;;;;;7.41;66.30;101148.03;2096905;28;46722;-65
2022/12/03 01:50:49;;;;;;;;;42.40;33.80;;;;;7.41;66.21;101145.38;2096797;28;46307;-65
2022/12/03 01:51:51;;;;;;;;;36.00;34.00;;;;;7.43;66.09;101146.25;2097137;28;46710;-64
2022/12/03 01:52:56;;;;;;;;;42.20;36.20;;;;;7.42;66.06;101152.41;2096945;28;46569;-66
2022/12/03 01:53:59;;;;;;;;;43.60;35.80;;;;;7.41;66.15;101148.03;2097149;28;46640;-64
2022/12/03 01:55:02;;;;;;;;;42.60;36.60;;;;;7.42;66.18;101140.97;2096977;28;46323;-66
2022/12/03 01:56:03;;;;;;;;;38.80;35.20;;;;;7.43;66.06;101153.28;2088507;28;47137;-66
2022/12/03 01:57:04;;;;;;;;;35.50;33.25;;;;;7.43;65.95;101146.25;2090101;28;46233;-66
2022/12/03 01:58:04;;;;;;;;;32.80;28.80;;;;;7.44;66.09;101147.13;2095134;28;46932;-65
2022/12/03 01:59:04;;;;;;;;;35.00;34.25;;;;;7.43;65.97;101156.81;2096317;28;46729;-64
2022/12/03 02:00:11;;;;;;;;;42.50;35.50;;;;;7.42;65.81;101147.13;2096834;28;45666;-65
2022/12/03 02:01:15;;;;;;;;;41.20;36.40;;;;;7.44;66.02;101141.84;2095447;28;46404;-66
2022/12/03 02:02:22;;;;;;;;;36.80;32.00;;;;;7.44;65.75;101147.13;2096471;28;46459;-65
2022/12/03 02:03:24;;;;;;;;;45.20;37.40;;;;;7.44;65.90;101144.50;2097083;28;46757;-64
2022/12/03 02:04:25;;;;;;;;;34.00;32.00;;;;;7.44;65.95;101144.50;2097126;28;46658;-65
2022/12/03 02:05:28;;;;;;;;;40.00;34.25;;;;;7.45;65.71;101146.25;2096853;28;46124;-66
2022/12/03 02:06:29;;;;;;;;;40.80;36.20;;;;;7.43;65.91;101143.63;2096541;28;46434;-65
2022/12/03 02:07:32;;;;;;;;;38.50;34.75;;;;;7.43;65.75;101146.25;2097210;28;46257;-64
2022/12/03 02:08:34;;;;;;;;;47.20;38.40;;;;;7.43;65.58;101143.63;2096426;28;46716;-66
2022/12/03 02:09:35;;;;;;;;;33.80;30.80;;;;;7.42;65.72;101146.25;2096568;28;46321;-64
2022/12/03 02:10:36;;;;;;;;;38.50;35.00;;;;;7.42;65.85;101140.97;2096183;28;46347;-65
2022/12/03 02:11:47;;;;;;;;;41.00;35.00;;;;;7.40;66.05;101142.75;2096899;28;46725;-64
2022/12/03 02:12:54;;;;;;;;;39.60;35.20;;;;;7.40;65.90;101146.25;2096679;28;46362;-66
2022/12/03 02:13:59;;;;;;;;;42.20;35.60;;;;;7.41;65.66;101152.44;2097225;28;46614;-64
2022/12/03 02:15:00;;;;;;;;;44.40;35.40;;;;;7.41;65.67;101139.22;2096371;28;46703;-64
2022/12/03 02:16:00;;;;;;;;;35.40;32.40;;;;;7.42;65.84;101143.63;2096689;28;46773;-65
2022/12/03 02:17:00;;;;;;;;;30.25;25.50;;;;;7.42;65.94;101146.25;2093564;28;46715;-65
2022/12/03 02:18:01;;;;;;;;;41.25;37.75;;;;;7.42;65.80;101147.13;2097063;28;46430;-64
2022/12/03 02:19:07;;;;;;;;;45.25;39.50;;;;;7.41;65.49;101155.94;2096672;28;45302;-65
2022/12/03 02:20:09;;;;;;;;;42.80;37.60;;;;;7.40;65.87;101148.03;2095653;28;46471;-66
2022/12/03 02:21:28;;;;;;;;;43.60;37.60;;;;;7.40;65.64;101145.38;2096544;28;47413;-64
2022/12/03 02:22:40;;;;;;;;;45.20;38.00;;;;;7.37;65.22;101141.88;2096234;28;47246;-65
2022/12/03 02:23:52;;;;;;;;;45.40;36.20;;;;;7.38;65.50;101150.69;2097192;28;45972;-65
2022/12/03 02:25:14;;;;;;;;;34.60;32.60;;;;;7.36;65.97;101150.66;2096159;28;46658;-64
2022/12/03 02:26:15;;;;;;;;;37.20;30.60;;;;;7.37;65.87;101152.44;2096402;28;46737;-64
2022/12/03 02:27:15;;;;;;;;;43.25;36.25;;;;;7.37;65.60;101138.34;2095146;28;46450;-66
2022/12/03 02:28:16;;;;;;;;;37.50;35.00;;;;;7.37;66.03;101147.16;2095765;28;46245;-64
2022/12/03 02:29:16;;;;;;;;;41.50;37.00;;;;;7.37;65.74;101147.16;2096945;28;46766;-65
2022/12/03 02:30:19;;;;;;;;;41.75;34.75;;;;;7.39;65.86;101141.88;2088963;28;47039;-65
2022/12/03 02:31:20;;;;;;;;;44.60;37.00;;;;;7.41;65.71;101142.75;2095959;28;46379;-65
2022/12/03 02:32:22;;;;;;;;;42.00;36.80;;;;;7.41;66.01;101142.75;2096306;28;46654;-64
2022/12/03 02:33:22;;;;;;;;;40.00;36.40;;;;;7.41;65.72;101144.50;2097042;28;46758;-64
2022/12/03 02:34:38;;;;;;;;;39.75;35.25;;;;;7.41;65.95;101140.09;2096486;28;46764;-65
2022/12/03 02:35:39;;;;;;;;;46.00;38.20;;;;;7.40;65.78;101140.09;2096712;28;46991;-65
2022/12/03 02:36:39;;;;;;;;;43.75;36.75;;;;;7.39;65.79;101141.88;2096139;28;46680;-64
2022/12/03 02:37:41;;;;;;;;;52.00;41.25;;;;;7.40;65.86;101142.75;2096886;28;46390;-63
2022/12/03 02:38:43;;;;;;;;;42.40;37.80;;;;;7.39;65.58;101141.88;2096393;28;46630;-65
2022/12/03 02:39:50;;;;;;;;;40.80;37.60;;;;;7.37;65.51;101136.59;2097014;28;46685;-64
2022/12/03 02:40:55;;;;;;;;;43.40;38.00;;;;;7.37;65.66;101138.34;2095234;28;46455;-65
2022/12/03 02:43:16;;;;;;;;;48.40;41.40;;;;;7.36;65.90;101129.53;2092120;28;46563;-65
2022/12/03 02:44:17;;;;;;;;;44.40;38.60;;;;;7.36;65.79;101136.56;2096336;28;46465;-65
2022/12/03 02:45:22;;;;;;;;;46.75;39.25;;;;;7.36;65.92;101140.09;2096386;28;46080;-64
2022/12/03 02:46:23;;;;;;;;;49.80;39.80;;;;;7.35;65.92;101135.69;2095891;28;46936;-62
2022/12/03 02:47:24;;;;;;;;;45.00;38.00;;;;;7.36;65.72;101129.53;2095786;28;46795;-66
2022/12/03 02:48:26;;;;;;;;;42.00;35.75;;;;;7.36;66.03;101129.53;2096960;28;46635;-65
2022/12/03 02:49:26;;;;;;;;;44.20;34.40;;;;;7.36;65.83;101133.94;2096323;28;46282;-65
2022/12/03 02:50:41;;;;;;;;;51.25;40.25;;;;;7.36;65.87;101134.81;2096723;28;46225;-64
2022/12/03 02:51:41;;;;;;;;;43.80;38.20;;;;;7.36;65.74;101134.81;2096466;28;47011;-65
2022/12/03 02:52:44;;;;;;;;;41.75;35.00;;;;;7.37;65.29;101135.72;2096700;28;46175;-67
2022/12/03 02:53:47;;;;;;;;;35.00;34.40;;;;;7.35;65.47;101133.06;2096237;28;46419;-65
2022/12/03 02:54:48;;;;;;;;;41.20;33.80;;;;;7.36;65.90;101131.28;2096013;28;46332;-64
2022/12/03 02:55:50;;;;;;;;;47.00;38.50;;;;;7.37;65.92;101133.06;2104470;28;46292;-63
2022/12/03 02:56:51;;;;;;;;;37.40;32.60;;;;;7.36;65.93;101128.66;2104163;28;46322;-66
2022/12/03 02:57:51;;;;;;;;;47.00;39.00;;;;;7.35;65.68;101130.41;2095013;28;46390;-65
2022/12/03 02:58:57;;;;;;;;;36.25;34.50;;;;;7.36;65.64;101123.38;2096861;28;46862;-65
2022/12/03 02:59:57;;;;;;;;;47.20;40.20;;;;;7.35;65.72;101122.50;2092519;28;46259;-65
2022/12/03 03:01:00;;;;;;;;;46.50;38.75;;;;;7.36;65.89;101121.59;2088327;28;46849;-66
2022/12/03 03:02:00;;;;;;;;;45.40;38.60;;;;;7.35;65.86;101125.13;2096239;28;46567;-65
2022/12/03 03:03:03;;;;;;;;;43.00;37.75;;;;;7.35;65.87;101126.91;2096211;28;46235;-67
2022/12/03 03:04:04;;;;;;;;;46.40;36.60;;;;;7.35;65.81;101121.63;2096352;28;46475;-65
2022/12/03 03:05:07;;;;;;;;;47.40;40.00;;;;;7.34;66.00;101119.84;2096874;28;46517;-66
2022/12/03 03:06:08;;;;;;;;;52.20;41.60;;;;;7.34;65.93;101123.38;2095967;28;46735;-65
2022/12/03 03:07:09;;;;;;;;;46.80;38.00;;;;;7.32;65.67;101127.78;2097868;28;46532;-65
2022/12/03 03:08:10;;;;;;;;;41.50;35.25;;;;;7.32;65.94;101119.88;2095768;28;48496;-65
2022/12/03 03:09:11;;;;;;;;;52.80;38.20;;;;;7.31;65.76;101119.88;2096270;28;46645;-65
2022/12/03 03:10:15;;;;;;;;;48.00;39.75;;;;;7.31;66.01;101117.22;2096569;28;46328;-65
2022/12/03 03:11:15;;;;;;;;;47.20;39.00;;;;;7.30;66.04;101119.00;2096039;28;45885;-65
2022/12/03 03:12:16;;;;;;;;;44.25;40.00;;;;;7.32;66.02;101129.53;2078473;28;45807;-66
2022/12/03 03:13:18;;;;;;;;;40.75;36.00;;;;;7.34;66.40;101125.13;2078945;28;46186;-66
2022/12/03 03:14:18;;;;;;;;;47.20;39.80;;;;;7.33;66.19;101126.91;2096688;28;46701;-64
2022/12/03 03:15:19;;;;;;;;;49.25;38.75;;;;;7.34;66.19;101131.28;2105455;27;46209;-65
2022/12/03 03:16:20;;;;;;;;;30.60;28.20;;;;;7.34;66.07;101136.56;2103374;27;46931;-65
2022/12/03 03:17:20;;;;;;;;;44.75;37.50;;;;;7.35;66.06;101130.41;2096055;28;46513;-65
2022/12/03 03:18:21;;;;;;;;;41.25;37.25;;;;;7.35;65.87;101130.41;2096501;28;46454;-66
2022/12/03 03:19:23;;;;;;;;;46.50;37.00;;;;;7.34;65.96;101131.28;2096675;28;47146;-66
2022/12/03 03:20:23;;;;;;;;;36.20;32.80;;;;;7.35;66.07;101138.34;2096455;28;46730;-65
2022/12/03 03:21:24;;;;;;;;;46.25;37.75;;;;;7.34;65.95;101131.28;2086251;28;46410;-64
2022/12/03 03:22:36;;;;;;;;;42.00;36.75;;;;;7.35;66.03;101134.81;2089571;28;46466;-66
2022/12/03 03:23:36;;;;;;;;;46.20;38.40;;;;;7.33;65.82;101126.91;2096465;28;46713;-64
2022/12/03 03:24:37;;;;;;;;;43.00;37.00;;;;;7.33;66.07;101129.53;2096279;28;45896;-65
2022/12/03 03:25:41;;;;;;;;;42.60;36.80;;;;;7.32;65.68;101125.16;2096490;28;46957;-65
2022/12/03 03:26:42;;;;;;;;;43.20;38.00;;;;;7.31;65.89;101119.88;2095719;28;46435;-65
2022/12/03 03:27:44;;;;;;;;;42.50;37.50;;;;;7.33;65.69;101123.38;2093726;28;46221;-64
2022/12/03 03:28:48;;;;;;;;;39.80;36.40;;;;;7.32;65.74;101127.78;2095972;28;46377;-66
2022/12/03 03:29:49;;;;;;;;;46.40;40.80;;;;;7.33;65.81;101128.66;2089724;28;46486;-66
2022/12/03 03:30:50;;;;;;;;;39.00;35.00;;;;;7.34;66.03;101127.78;2096270;28;46184;-63
2022/12/03 03:31:50;;;;;;;;;42.50;37.00;;;;;7.33;65.92;101121.63;2096397;28;45815;-67
2022/12/03 03:32:51;;;;;;;;;50.00;38.50;;;;;7.35;65.96;101124.25;2096782;28;46523;-64
2022/12/03 03:33:51;;;;;;;;;43.50;36.50;;;;;7.35;65.79;101126.91;2096269;28;46471;-64
2022/12/03 03:34:52;;;;;;;;;40.50;36.25;;;;;7.35;65.96;101125.13;2086988;28;45603;-63
2022/12/03 03:35:53;;;;;;;;;32.00;30.25;;;;;7.35;65.79;101127.78;2086278;28;46896;-64
2022/12/03 03:36:53;;;;;;;;;44.50;37.75;;;;;7.34;65.56;101120.72;2094386;28;46232;-65
2022/12/03 03:37:57;;;;;;;;;46.25;40.50;;;;;7.33;65.61;101123.38;2096480;28;47476;-66
2022/12/03 03:38:57;;;;;;;;;41.80;34.60;;;;;7.33;65.44;101128.66;2103748;27;46097;-63
2022/12/03 03:39:58;;;;;;;;;45.00;37.50;;;;;7.33;65.85;101140.09;2104659;28;46677;-64
2022/12/03 03:41:01;;;;;;;;;42.25;36.25;;;;;7.33;65.79;101126.03;2096095;28;48025;-65
2022/12/03 03:42:02;;;;;;;;;41.20;33.80;;;;;7.32;65.54;101133.06;2096406;28;46998;-66
2022/12/03 03:43:04;;;;;;;;;35.50;32.50;;;;;7.30;65.42;101126.91;2096052;28;47127;-65
2022/12/03 03:44:06;;;;;;;;;41.80;37.40;;;;;7.28;65.22;101133.97;2096533;28;46530;-64
2022/12/03 03:45:08;;;;;;;;;43.40;37.80;;;;;7.27;65.26;101118.13;2096301;28;45580;-63
2022/12/03 03:46:09;;;;;;;;;44.60;37.80;;;;;7.26;65.52;101127.81;2096415;28;46411;-66
2022/12/03 03:47:11;;;;;;;;;51.20;41.00;;;;;7.24;65.47;101123.38;2095695;28;46333;-65
2022/12/03 03:48:12;;;;;;;;;42.20;36.00;;;;;7.24;65.30;101124.31;2104564;28;46497;-65
2022/12/03 03:49:13;;;;;;;;;41.00;36.80;;;;;7.22;65.52;101120.75;2104315;28;46592;-64
2022/12/03 03:50:14;;;;;;;;;31.20;28.20;;;;;7.21;65.49;101121.63;2096196;28;46171;-65
2022/12/03 03:51:16;;;;;;;;;37.20;33.40;;;;;7.21;65.41;101121.63;2096453;28;46887;-64
2022/12/03 03:52:18;;;;;;;;;37.60;36.60;;;;;7.22;65.37;101119.88;2094622;28;46840;-66
2022/12/03 03:53:20;;;;;;;;;40.00;34.80;;;;;7.21;65.34;101116.34;2095639;28;45099;-65
2022/12/03 03:54:22;;;;;;;;;38.60;36.80;;;;;7.20;65.44;101117.25;2095933;28;47030;-63
2022/12/03 03:55:22;;;;;;;;;47.40;38.40;;;;;7.22;65.28;101109.31;2096361;28;45238;-64
2022/12/03 03:56:23;;;;;;;;;38.75;34.75;;;;;7.22;65.47;101125.16;2094880;28;45895;-65
2022/12/03 03:57:23;;;;;;;;;44.50;38.25;;;;;7.24;65.39;101118.09;2094949;28;46306;-65
2022/12/03 03:58:23;;;;;;;;;46.50;38.00;;;;;7.24;65.42;101124.31;2096607;28;46371;-65
2022/12/03 03:59:24;;;;;;;;;41.00;35.25;;;;;7.24;65.09;101116.38;2096209;28;46463;-66
2022/12/03 04:00:24;;;;;;;;;37.75;28.00;;;;;7.24;65.21;101124.31;2096382;28;46197;-65
2022/12/03 04:01:25;;;;;;;;;36.75;32.50;;;;;7.24;64.97;101133.94;2089438;28;46174;-65
2022/12/03 04:02:26;;;;;;;;;38.00;35.75;;;;;7.23;65.02;101125.16;2090338;28;46295;-63
2022/12/03 04:03:28;;;;;;;;;40.60;35.80;;;;;7.23;65.19;101130.44;2096305;28;46303;-65
2022/12/03 04:04:35;;;;;;;;;40.20;35.40;;;;;7.22;65.26;101133.94;2096176;28;46805;-65
2022/12/03 04:05:35;;;;;;;;;39.80;35.20;;;;;7.21;65.17;101119.00;2096422;28;46196;-64
2022/12/03 04:06:35;;;;;;;;;45.25;37.75;;;;;7.20;64.78;101124.28;2096646;28;46379;-65
2022/12/03 04:07:36;;;;;;;;;35.50;32.50;;;;;7.18;65.03;101124.28;2096034;28;46533;-65
2022/12/03 04:08:36;;;;;;;;;40.50;36.00;;;;;7.17;65.16;101119.03;2096327;28;46717;-64
2022/12/03 04:09:36;;;;;;;;;38.00;36.25;;;;;7.17;65.04;101121.66;2095994;28;45756;-65
2022/12/03 04:13:14;;;;;;;;;38.40;36.00;;;;;7.14;65.03;101127.81;2096108;28;46476;-65
2022/12/03 04:14:14;;;;;;;;;40.25;35.25;;;;;7.13;65.12;101118.16;2096335;28;45467;-65
2022/12/03 04:15:15;;;;;;;;;32.50;32.25;;;;;7.13;65.17;101125.19;2096363;28;46510;-64
2022/12/03 04:16:15;;;;;;;;;47.75;40.25;;;;;7.13;65.22;101115.50;2096106;28;46451;-65
2022/12/03 04:17:15;;;;;;;;;41.00;35.25;;;;;7.12;65.29;101119.03;2096200;28;46579;-65
2022/12/03 04:19:34;;;;;;;;;40.60;35.20;;;;;7.12;65.30;101108.47;2096188;28;46339;-66
2022/12/03 04:20:35;;;;;;;;;40.50;36.25;;;;;7.14;65.02;101114.63;2096206;28;46294;-64
2022/12/03 04:22:55;;;;;;;;;38.00;36.20;;;;;7.15;65.08;101110.22;2096759;28;45721;-64
2022/12/03 04:23:55;;;;;;;;;37.50;33.00;;;;;7.15;65.03;101119.03;2096502;28;45898;-62
2022/12/03 04:28:47;;;;;;;;;39.50;34.00;;;;;7.15;65.12;101110.22;2095494;28;46695;-63
2022/12/03 04:28:54;;;;;;;;;33.60;31.60;;;;;7.17;64.88;101106.69;2090613;28;46951;-64
2022/12/03 04:29:54;;;;;;;;;33.75;32.25;;;;;7.17;65.08;101103.19;2090386;28;46475;-64
2022/12/03 04:30:54;;;;;;;;;48.75;39.00;;;;;7.17;64.98;101119.03;2095472;28;46537;-65
2022/12/03 04:35:51;;;;;;;;;41.40;36.80;;;;;7.13;64.86;101115.50;2095750;28;46723;-64
2022/12/03 04:36:52;;;;;;;;;44.50;37.00;;;;;7.13;65.02;101104.06;2095906;28;46601;-64
2022/12/03 04:37:52;;;;;;;;;41.75;37.00;;;;;7.12;64.88;101104.97;2095890;28;46723;-65
2022/12/03 04:38:52;;;;;;;;;33.50;29.50;;;;;7.12;65.05;101100.56;2096206;28;46128;-65
2022/12/03 04:39:53;;;;;;;;;40.00;33.00;;;;;7.13;65.00;101096.16;2096404;28;46280;-65
2022/12/03 04:41:05;;;;;;;;;37.00;35.00;;;;;7.14;65.00;101095.28;2095957;28;46279;-65
2022/12/03 04:42:05;;;;;;;;;33.60;26.20;;;;;7.13;64.90;101098.81;2093480;28;45087;-64
2022/12/03 04:43:06;;;;;;;;;37.25;34.00;;;;;7.14;64.88;101103.19;2094399;28;46178;-64
2022/12/03 04:45:25;;;;;;;;;39.20;35.80;;;;;7.15;64.84;101089.13;2095832;28;45712;-64
2022/12/03 04:46:25;;;;;;;;;33.75;33.25;;;;;7.15;64.93;101094.41;2094352;28;46752;-66
2022/12/03 04:47:26;;;;;;;;;33.75;33.50;;;;;7.15;65.22;101099.66;2095608;28;46437;-64
2022/12/03 04:48:26;;;;;;;;;39.75;35.75;;;;;7.15;65.01;101095.28;2096399;28;46774;-66
2022/12/03 04:49:26;;;;;;;;;42.50;35.50;;;;;7.15;64.77;101090.00;2095954;28;46811;-65
2022/12/03 04:50:27;;;;;;;;;33.75;31.75;;;;;7.14;64.98;101098.78;2094643;28;45769;-65
2022/12/03 04:51:27;;;;;;;;;40.25;36.25;;;;;7.15;64.70;101099.66;2095730;28;45928;-65
2022/12/03 04:52:27;;;;;;;;;42.00;37.00;;;;;7.15;64.89;101099.66;2096101;28;45903;-65
2022/12/03 04:53:27;;;;;;;;;39.25;37.00;;;;;7.14;64.94;101100.56;2100717;27;46479;-67
2022/12/03 04:54:28;;;;;;;;;41.25;35.00;;;;;7.12;64.85;101103.19;2101519;27;46285;-65
2022/12/03 04:55:28;;;;;;;;;42.50;34.50;;;;;7.12;64.77;101097.03;2096045;28;46340;-66
2022/12/03 04:56:29;;;;;;;;;35.25;35.00;;;;;7.11;65.04;101092.63;2095420;28;45883;-63
2022/12/03 04:57:29;;;;;;;;;40.00;35.50;;;;;7.12;64.40;101102.31;2095844;28;46701;-64
2022/12/03 04:58:29;;;;;;;;;43.75;37.25;;;;;7.12;64.89;101099.69;2095519;28;46626;-65
2022/12/03 04:59:30;;;;;;;;;34.50;32.75;;;;;7.11;64.55;101103.19;2096018;28;46682;-65
2022/12/03 05:00:30;;;;;;;;;32.25;27.25;;;;;7.10;64.39;101099.66;2095652;28;46255;-64